sensor_id;sensor_type;location;lat;lon;timestamp;P1;durP1;ratioP1;P2;durP2;ratioP2
2564;SDS011;1292;48.020;7.822;2023-03-01T06:46:48;15.83;;;11.23;;
2564;SDS011;1292;48.020;7.822;2023-03-01T06:49:15;16.77;;;11.10;;
2564;SDS011;1292;48.020;7.822;2023-03-01T06:51:43;21.27;;;12.10;;
2564;SDS011;1292;48.020;7.822;2023-03-01T06:54:10;20.43;;;13.27;;
2564;SDS011;1292;48.020;7.822;2023-03-01T06:56:37;19.13;;;12.40;;
2564;SDS011;1292;48.020;7.822;2023-03-01T06:59:04;16.97;;;12.03;;
2564;SDS011;1292;48.020;7.822;2023-03-01T07:01:31;18.20;;;11.80;;
2564;SDS011;1292;48.020;7.822;2023-03-01T07:03:59;21.70;;;13.30;;
2564;SDS011;1292;48.020;7.822;2023-03-01T07:06:26;16.00;;;11.73;;
2564;SDS011;1292;48.020;7.822;2023-03-01T07:08:53;19.43;;;12.17;;
2564;SDS011;1292;48.020;7.822;2023-03-01T07:11:19;19.27;;;10.93;;
2564;SDS011;1292;48.020;7.822;2023-03-01T07:13:46;25.03;;;13.30;;
2564;SDS011;1292;48.020;7.822;2023-03-01T07:16:13;20.23;;;12.73;;
2564;SDS011;1292;48.020;7.822;2023-03-01T07:18:40;16.73;;;12.23;;
2564;SDS011;1292;48.020;7.822;2023-03-01T07:21:09;19.07;;;11.90;;
2564;SDS011;1292;48.020;7.822;2023-03-01T07:23:39;18.20;;;12.30;;
2564;SDS011;1292;48.020;7.822;2023-03-01T07:26:06;16.93;;;11.70;;
2564;SDS011;1292;48.020;7.822;2023-03-01T07:28:33;19.77;;;12.07;;
2564;SDS011;1292;48.020;7.822;2023-03-01T07:31:03;19.60;;;11.50;;
2564;SDS011;1292;48.020;7.822;2023-03-01T07:33:30;19.20;;;12.63;;
2564;SDS011;1292;48.020;7.822;2023-03-01T07:35:58;22.60;;;12.00;;
2564;SDS011;1292;48.020;7.822;2023-03-01T07:38:27;19.07;;;13.60;;
2564;SDS011;1292;48.020;7.822;2023-03-01T07:40:57;18.13;;;11.60;;
2564;SDS011;1292;48.020;7.822;2023-03-01T07:43:25;22.00;;;13.97;;
2564;SDS011;1292;48.020;7.822;2023-03-01T07:45:52;21.60;;;13.10;;
2564;SDS011;1292;48.020;7.822;2023-03-01T07:48:18;19.83;;;12.53;;
2564;SDS011;1292;48.020;7.822;2023-03-01T07:50:45;20.93;;;13.73;;
2564;SDS011;1292;48.020;7.822;2023-03-01T07:53:12;17.53;;;13.20;;
2564;SDS011;1292;48.020;7.822;2023-03-01T07:55:40;21.33;;;13.23;;
2564;SDS011;1292;48.020;7.822;2023-03-01T07:58:07;19.67;;;12.73;;
2564;SDS011;1292;48.020;7.822;2023-03-01T08:00:34;19.50;;;12.90;;
2564;SDS011;1292;48.020;7.822;2023-03-01T08:03:01;16.60;;;11.80;;
2564;SDS011;1292;48.020;7.822;2023-03-01T08:05:28;20.67;;;13.27;;
2564;SDS011;1292;48.020;7.822;2023-03-01T08:07:55;26.30;;;12.70;;
2564;SDS011;1292;48.020;7.822;2023-03-01T08:10:22;18.77;;;11.50;;
2564;SDS011;1292;48.020;7.822;2023-03-01T08:12:51;19.37;;;12.00;;
2564;SDS011;1292;48.020;7.822;2023-03-01T08:15:18;16.23;;;10.70;;
2564;SDS011;1292;48.020;7.822;2023-03-01T08:17:45;20.37;;;14.83;;
2564;SDS011;1292;48.020;7.822;2023-03-01T08:20:15;15.77;;;11.47;;
2564;SDS011;1292;48.020;7.822;2023-03-01T08:22:42;22.00;;;13.90;;
2564;SDS011;1292;48.020;7.822;2023-03-01T08:25:09;19.20;;;13.40;;
2564;SDS011;1292;48.020;7.822;2023-03-01T08:27:36;22.40;;;13.83;;
2564;SDS011;1292;48.020;7.822;2023-03-01T08:30:04;20.13;;;13.77;;
2564;SDS011;1292;48.020;7.822;2023-03-01T08:32:35;22.87;;;13.37;;
2564;SDS011;1292;48.020;7.822;2023-03-01T08:35:03;23.03;;;13.13;;
2564;SDS011;1292;48.020;7.822;2023-03-01T08:37:31;23.97;;;13.30;;
2564;SDS011;1292;48.020;7.822;2023-03-01T08:39:58;21.67;;;13.93;;
2564;SDS011;1292;48.020;7.822;2023-03-01T08:42:25;19.33;;;12.90;;
2564;SDS011;1292;48.020;7.822;2023-03-01T08:44:52;19.30;;;12.60;;
2564;SDS011;1292;48.020;7.822;2023-03-01T08:47:20;21.07;;;13.90;;
2564;SDS011;1292;48.020;7.822;2023-03-01T08:49:46;18.63;;;12.63;;
2564;SDS011;1292;48.020;7.822;2023-03-01T08:52:15;23.37;;;13.17;;
2564;SDS011;1292;48.020;7.822;2023-03-01T08:54:42;18.83;;;12.73;;
2564;SDS011;1292;48.020;7.822;2023-03-01T08:57:09;19.27;;;12.10;;
2564;SDS011;1292;48.020;7.822;2023-03-01T08:59:37;21.07;;;13.90;;
2564;SDS011;1292;48.020;7.822;2023-03-01T09:02:05;27.37;;;13.37;;
2564;SDS011;1292;48.020;7.822;2023-03-01T09:04:38;18.77;;;13.17;;
2564;SDS011;1292;48.020;7.822;2023-03-01T09:07:05;20.73;;;12.40;;
2564;SDS011;1292;48.020;7.822;2023-03-01T09:09:32;21.13;;;13.00;;
2564;SDS011;1292;48.020;7.822;2023-03-01T09:11:59;20.83;;;12.90;;
2564;SDS011;1292;48.020;7.822;2023-03-01T09:14:26;20.80;;;13.13;;
2564;SDS011;1292;48.020;7.822;2023-03-01T09:16:53;18.20;;;13.17;;
2564;SDS011;1292;48.020;7.822;2023-03-01T09:19:20;21.00;;;12.13;;
2564;SDS011;1292;48.020;7.822;2023-03-01T09:21:48;22.40;;;14.67;;
2564;SDS011;1292;48.020;7.822;2023-03-01T09:24:19;19.13;;;13.20;;
2564;SDS011;1292;48.020;7.822;2023-03-01T09:26:47;15.67;;;12.73;;
2564;SDS011;1292;48.020;7.822;2023-03-01T09:29:14;17.70;;;11.73;;
2564;SDS011;1292;48.020;7.822;2023-03-01T09:31:41;28.00;;;15.40;;
2564;SDS011;1292;48.020;7.822;2023-03-01T09:34:08;20.57;;;12.80;;
2564;SDS011;1292;48.020;7.822;2023-03-01T09:36:35;20.40;;;13.80;;
2564;SDS011;1292;48.020;7.822;2023-03-01T09:39:04;20.40;;;12.03;;
2564;SDS011;1292;48.020;7.822;2023-03-01T09:41:38;15.70;;;12.70;;
2564;SDS011;1292;48.020;7.822;2023-03-01T09:44:16;20.87;;;14.17;;
2564;SDS011;1292;48.020;7.822;2023-03-01T09:46:50;17.73;;;13.37;;
2564;SDS011;1292;48.020;7.822;2023-03-01T09:49:17;23.40;;;14.20;;
2564;SDS011;1292;48.020;7.822;2023-03-01T09:51:50;24.00;;;14.90;;
2564;SDS011;1292;48.020;7.822;2023-03-01T09:54:23;16.80;;;11.87;;
2564;SDS011;1292;48.020;7.822;2023-03-01T09:56:56;24.33;;;15.57;;
2564;SDS011;1292;48.020;7.822;2023-03-01T09:59:39;21.07;;;14.10;;
2564;SDS011;1292;48.020;7.822;2023-03-01T10:02:24;18.07;;;11.30;;
2564;SDS011;1292;48.020;7.822;2023-03-01T10:04:58;25.07;;;15.70;;
2564;SDS011;1292;48.020;7.822;2023-03-01T10:07:37;21.83;;;13.63;;
2564;SDS011;1292;48.020;7.822;2023-03-01T10:10:19;19.83;;;14.30;;
2564;SDS011;1292;48.020;7.822;2023-03-01T10:12:52;27.53;;;13.87;;
2564;SDS011;1292;48.020;7.822;2023-03-01T10:15:22;18.87;;;13.90;;
2564;SDS011;1292;48.020;7.822;2023-03-01T10:17:59;20.07;;;13.77;;
2564;SDS011;1292;48.020;7.822;2023-03-01T10:20:33;22.70;;;14.50;;
2564;SDS011;1292;48.020;7.822;2023-03-01T10:23:08;19.17;;;13.67;;
2564;SDS011;1292;48.020;7.822;2023-03-01T10:25:42;24.47;;;12.50;;
2564;SDS011;1292;48.020;7.822;2023-03-01T10:28:16;20.53;;;14.60;;
2564;SDS011;1292;48.020;7.822;2023-03-01T10:30:46;19.63;;;14.30;;
2564;SDS011;1292;48.020;7.822;2023-03-01T10:33:14;19.00;;;13.00;;
2564;SDS011;1292;48.020;7.822;2023-03-01T10:35:43;18.40;;;13.03;;
2564;SDS011;1292;48.020;7.822;2023-03-01T10:38:11;21.33;;;15.03;;
2564;SDS011;1292;48.020;7.822;2023-03-01T10:40:50;19.10;;;13.70;;
2564;SDS011;1292;48.020;7.822;2023-03-01T10:43:20;21.77;;;14.27;;
2564;SDS011;1292;48.020;7.822;2023-03-01T10:45:47;18.40;;;13.27;;
2564;SDS011;1292;48.020;7.822;2023-03-01T10:48:15;21.10;;;14.23;;
2564;SDS011;1292;48.020;7.822;2023-03-01T10:50:43;22.40;;;15.50;;
2564;SDS011;1292;48.020;7.822;2023-03-01T10:53:24;20.83;;;14.23;;
2564;SDS011;1292;48.020;7.822;2023-03-01T10:55:59;18.40;;;13.63;;
2564;SDS011;1292;48.020;7.822;2023-03-01T10:58:28;19.60;;;13.90;;
2564;SDS011;1292;48.020;7.822;2023-03-01T11:00:57;21.03;;;15.07;;
2564;SDS011;1292;48.020;7.822;2023-03-01T11:03:26;17.37;;;13.33;;
2564;SDS011;1292;48.020;7.822;2023-03-01T11:06:02;29.60;;;16.80;;
2564;SDS011;1292;48.020;7.822;2023-03-01T11:08:35;22.00;;;14.23;;
2564;SDS011;1292;48.020;7.822;2023-03-01T11:13:56;19.80;;;12.20;;
2564;SDS011;1292;48.020;7.822;2023-03-01T11:16:26;23.37;;;15.33;;
2564;SDS011;1292;48.020;7.822;2023-03-01T11:19:01;22.40;;;15.17;;
2564;SDS011;1292;48.020;7.822;2023-03-01T11:21:41;23.07;;;15.03;;
2564;SDS011;1292;48.020;7.822;2023-03-01T11:24:14;20.97;;;12.97;;
2564;SDS011;1292;48.020;7.822;2023-03-01T11:26:44;17.10;;;13.70;;
2564;SDS011;1292;48.020;7.822;2023-03-01T11:29:21;19.40;;;13.23;;
2564;SDS011;1292;48.020;7.822;2023-03-01T11:31:57;20.83;;;13.87;;
2564;SDS011;1292;48.020;7.822;2023-03-01T11:34:33;19.87;;;13.47;;
2564;SDS011;1292;48.020;7.822;2023-03-01T11:37:09;24.20;;;14.67;;
2564;SDS011;1292;48.020;7.822;2023-03-01T11:39:42;20.70;;;14.57;;
2564;SDS011;1292;48.020;7.822;2023-03-01T11:42:17;17.60;;;12.93;;
2564;SDS011;1292;48.020;7.822;2023-03-01T11:44:47;16.67;;;13.10;;
2564;SDS011;1292;48.020;7.822;2023-03-01T11:47:23;22.50;;;15.17;;
2564;SDS011;1292;48.020;7.822;2023-03-01T11:50:01;20.40;;;13.93;;
2564;SDS011;1292;48.020;7.822;2023-03-01T11:52:44;20.83;;;13.27;;
2564;SDS011;1292;48.020;7.822;2023-03-01T11:55:24;18.53;;;13.20;;
2564;SDS011;1292;48.020;7.822;2023-03-01T11:58:02;19.30;;;12.63;;
2564;SDS011;1292;48.020;7.822;2023-03-01T12:00:42;16.70;;;12.03;;
2564;SDS011;1292;48.020;7.822;2023-03-01T12:03:23;17.73;;;13.67;;
2564;SDS011;1292;48.020;7.822;2023-03-01T12:09:04;20.20;;;12.77;;
2564;SDS011;1292;48.020;7.822;2023-03-01T12:11:43;19.80;;;14.60;;
2564;SDS011;1292;48.020;7.822;2023-03-01T12:14:28;18.10;;;12.00;;
2564;SDS011;1292;48.020;7.822;2023-03-01T12:17:15;13.43;;;12.03;;
2564;SDS011;1292;48.020;7.822;2023-03-01T12:20:10;17.53;;;13.10;;
2564;SDS011;1292;48.020;7.822;2023-03-01T12:22:51;15.17;;;10.90;;
2564;SDS011;1292;48.020;7.822;2023-03-01T12:25:30;19.57;;;13.70;;
2564;SDS011;1292;48.020;7.822;2023-03-01T12:28:04;19.03;;;12.90;;
2564;SDS011;1292;48.020;7.822;2023-03-01T12:30:56;16.07;;;11.67;;
2564;SDS011;1292;48.020;7.822;2023-03-01T12:33:39;20.10;;;12.63;;
2564;SDS011;1292;48.020;7.822;2023-03-01T12:36:20;17.37;;;13.43;;
2564;SDS011;1292;48.020;7.822;2023-03-01T12:38:59;18.50;;;12.43;;
2564;SDS011;1292;48.020;7.822;2023-03-01T12:41:40;15.27;;;10.97;;
2564;SDS011;1292;48.020;7.822;2023-03-01T12:44:12;18.50;;;13.07;;
2564;SDS011;1292;48.020;7.822;2023-03-01T12:46:55;18.17;;;11.53;;
2564;SDS011;1292;48.020;7.822;2023-03-01T12:49:32;17.93;;;12.43;;
2564;SDS011;1292;48.020;7.822;2023-03-01T12:52:15;14.47;;;11.37;;
2564;SDS011;1292;48.020;7.822;2023-03-01T12:54:47;15.33;;;10.47;;
2564;SDS011;1292;48.020;7.822;2023-03-01T12:57:16;14.20;;;10.97;;
2564;SDS011;1292;48.020;7.822;2023-03-01T12:59:58;15.73;;;12.27;;
2564;SDS011;1292;48.020;7.822;2023-03-01T13:02:37;16.27;;;11.50;;
2564;SDS011;1292;48.020;7.822;2023-03-01T13:05:17;13.43;;;11.10;;
2564;SDS011;1292;48.020;7.822;2023-03-01T13:07:52;19.17;;;10.77;;
2564;SDS011;1292;48.020;7.822;2023-03-01T13:10:26;16.27;;;11.80;;
2564;SDS011;1292;48.020;7.822;2023-03-01T13:15:47;22.90;;;13.03;;
2564;SDS011;1292;48.020;7.822;2023-03-01T13:18:30;15.37;;;10.70;;
2564;SDS011;1292;48.020;7.822;2023-03-01T13:21:02;15.30;;;11.20;;
2564;SDS011;1292;48.020;7.822;2023-03-01T13:23:31;13.23;;;10.40;;
2564;SDS011;1292;48.020;7.822;2023-03-01T13:26:06;21.90;;;12.77;;
2564;SDS011;1292;48.020;7.822;2023-03-01T13:28:40;16.53;;;10.97;;
2564;SDS011;1292;48.020;7.822;2023-03-01T13:34:45;14.70;;;10.17;;
2564;SDS011;1292;48.020;7.822;2023-03-01T13:37:21;15.50;;;10.50;;
2564;SDS011;1292;48.020;7.822;2023-03-01T13:39:54;15.77;;;12.53;;
2564;SDS011;1292;48.020;7.822;2023-03-01T13:45:16;15.80;;;11.30;;
2564;SDS011;1292;48.020;7.822;2023-03-01T13:47:53;15.50;;;11.53;;
2564;SDS011;1292;48.020;7.822;2023-03-01T13:50:25;17.20;;;11.27;;
2564;SDS011;1292;48.020;7.822;2023-03-01T13:52:55;35.50;;;32.23;;
2564;SDS011;1292;48.020;7.822;2023-03-01T13:55:27;26.53;;;14.07;;
2564;SDS011;1292;48.020;7.822;2023-03-01T13:58:03;17.87;;;12.90;;
2564;SDS011;1292;48.020;7.822;2023-03-01T14:00:41;15.90;;;10.40;;
2564;SDS011;1292;48.020;7.822;2023-03-01T14:03:11;14.47;;;10.67;;
2564;SDS011;1292;48.020;7.822;2023-03-01T14:05:41;14.30;;;11.27;;
2564;SDS011;1292;48.020;7.822;2023-03-01T14:08:23;14.87;;;10.67;;
2564;SDS011;1292;48.020;7.822;2023-03-01T14:10:58;19.67;;;10.83;;
2564;SDS011;1292;48.020;7.822;2023-03-01T14:13:46;13.77;;;10.57;;
2564;SDS011;1292;48.020;7.822;2023-03-01T14:16:24;13.50;;;10.20;;
2564;SDS011;1292;48.020;7.822;2023-03-01T14:19:01;13.30;;;10.40;;
2564;SDS011;1292;48.020;7.822;2023-03-01T14:21:39;13.50;;;10.17;;
2564;SDS011;1292;48.020;7.822;2023-03-01T14:24:13;14.47;;;10.77;;
2564;SDS011;1292;48.020;7.822;2023-03-01T14:26:43;16.67;;;11.87;;
2564;SDS011;1292;48.020;7.822;2023-03-01T14:29:23;13.83;;;10.07;;
2564;SDS011;1292;48.020;7.822;2023-03-01T14:31:50;17.80;;;11.03;;
2564;SDS011;1292;48.020;7.822;2023-03-01T14:34:19;13.97;;;10.83;;
2564;SDS011;1292;48.020;7.822;2023-03-01T14:36:48;14.30;;;10.50;;
2564;SDS011;1292;48.020;7.822;2023-03-01T14:39:18;17.17;;;11.23;;
2564;SDS011;1292;48.020;7.822;2023-03-01T14:41:49;14.93;;;10.97;;
2564;SDS011;1292;48.020;7.822;2023-03-01T14:44:18;14.73;;;11.47;;
2564;SDS011;1292;48.020;7.822;2023-03-01T14:46:51;22.33;;;13.77;;
2564;SDS011;1292;48.020;7.822;2023-03-01T14:49:21;22.03;;;15.53;;
2564;SDS011;1292;48.020;7.822;2023-03-01T14:51:54;17.67;;;13.70;;
2564;SDS011;1292;48.020;7.822;2023-03-01T14:54:25;16.90;;;13.60;;
2564;SDS011;1292;48.020;7.822;2023-03-01T14:56:58;20.57;;;14.20;;
2564;SDS011;1292;48.020;7.822;2023-03-01T14:59:25;16.47;;;12.70;;
2564;SDS011;1292;48.020;7.822;2023-03-01T15:01:53;19.03;;;14.20;;
2564;SDS011;1292;48.020;7.822;2023-03-01T15:04:22;21.53;;;14.03;;
2564;SDS011;1292;48.020;7.822;2023-03-01T15:06:52;20.43;;;15.07;;
2564;SDS011;1292;48.020;7.822;2023-03-01T15:09:21;18.93;;;14.00;;
2564;SDS011;1292;48.020;7.822;2023-03-01T15:11:48;21.70;;;14.17;;
2564;SDS011;1292;48.020;7.822;2023-03-01T15:14:25;19.37;;;15.03;;
2564;SDS011;1292;48.020;7.822;2023-03-01T15:16:53;20.20;;;15.47;;
2564;SDS011;1292;48.020;7.822;2023-03-01T15:19:20;20.13;;;15.07;;
2564;SDS011;1292;48.020;7.822;2023-03-01T15:21:50;23.00;;;15.43;;
2564;SDS011;1292;48.020;7.822;2023-03-01T15:24:20;18.60;;;15.13;;
2564;SDS011;1292;48.020;7.822;2023-03-01T15:26:50;20.97;;;16.37;;
2564;SDS011;1292;48.020;7.822;2023-03-01T15:29:21;19.53;;;14.80;;
2564;SDS011;1292;48.020;7.822;2023-03-01T15:31:55;20.40;;;15.57;;
2564;SDS011;1292;48.020;7.822;2023-03-01T15:34:24;20.40;;;15.63;;
2564;SDS011;1292;48.020;7.822;2023-03-01T15:36:54;23.80;;;17.27;;
2564;SDS011;1292;48.020;7.822;2023-03-01T15:39:30;22.10;;;14.87;;
2564;SDS011;1292;48.020;7.822;2023-03-01T15:42:02;23.43;;;15.53;;
2564;SDS011;1292;48.020;7.822;2023-03-01T15:44:31;20.27;;;16.23;;
2564;SDS011;1292;48.020;7.822;2023-03-01T15:46:59;21.47;;;15.20;;
2564;SDS011;1292;48.020;7.822;2023-03-01T15:49:31;28.40;;;17.07;;
2564;SDS011;1292;48.020;7.822;2023-03-01T15:52:04;30.10;;;18.03;;
2564;SDS011;1292;48.020;7.822;2023-03-01T15:54:36;51.63;;;21.30;;
2564;SDS011;1292;48.020;7.822;2023-03-01T15:57:05;23.33;;;16.17;;
2564;SDS011;1292;48.020;7.822;2023-03-01T15:59:34;25.00;;;16.10;;
2564;SDS011;1292;48.020;7.822;2023-03-01T16:02:01;57.03;;;25.20;;
2564;SDS011;1292;48.020;7.822;2023-03-01T16:04:28;28.23;;;17.40;;
2564;SDS011;1292;48.020;7.822;2023-03-01T16:06:55;29.83;;;18.23;;
2564;SDS011;1292;48.020;7.822;2023-03-01T16:09:23;27.53;;;17.37;;
2564;SDS011;1292;48.020;7.822;2023-03-01T16:11:52;35.13;;;25.00;;
2564;SDS011;1292;48.020;7.822;2023-03-01T16:14:19;26.07;;;18.50;;
2564;SDS011;1292;48.020;7.822;2023-03-01T16:16:47;38.43;;;19.67;;
2564;SDS011;1292;48.020;7.822;2023-03-01T16:19:14;28.50;;;17.07;;
2564;SDS011;1292;48.020;7.822;2023-03-01T16:21:41;36.17;;;19.07;;
2564;SDS011;1292;48.020;7.822;2023-03-01T16:24:11;23.60;;;16.00;;
2564;SDS011;1292;48.020;7.822;2023-03-01T16:26:40;26.90;;;17.27;;
2564;SDS011;1292;48.020;7.822;2023-03-01T16:29:07;24.20;;;17.10;;
2564;SDS011;1292;48.020;7.822;2023-03-01T16:31:34;20.80;;;14.97;;
2564;SDS011;1292;48.020;7.822;2023-03-01T16:34:01;21.10;;;15.13;;
2564;SDS011;1292;48.020;7.822;2023-03-01T16:36:28;28.07;;;17.77;;
2564;SDS011;1292;48.020;7.822;2023-03-01T16:38:55;22.80;;;16.17;;
2564;SDS011;1292;48.020;7.822;2023-03-01T16:41:24;26.37;;;15.50;;
2564;SDS011;1292;48.020;7.822;2023-03-01T16:43:52;24.47;;;18.40;;
2564;SDS011;1292;48.020;7.822;2023-03-01T16:46:20;22.03;;;15.20;;
2564;SDS011;1292;48.020;7.822;2023-03-01T16:48:48;23.20;;;16.30;;
2564;SDS011;1292;48.020;7.822;2023-03-01T16:51:16;23.87;;;16.83;;
2564;SDS011;1292;48.020;7.822;2023-03-01T16:53:43;28.00;;;16.30;;
2564;SDS011;1292;48.020;7.822;2023-03-01T16:56:10;21.30;;;14.83;;
2564;SDS011;1292;48.020;7.822;2023-03-01T16:58:38;23.53;;;17.07;;
2564;SDS011;1292;48.020;7.822;2023-03-01T17:01:08;19.13;;;14.37;;
2564;SDS011;1292;48.020;7.822;2023-03-01T17:03:37;22.63;;;17.53;;
2564;SDS011;1292;48.020;7.822;2023-03-01T17:06:04;21.57;;;15.43;;
2564;SDS011;1292;48.020;7.822;2023-03-01T17:08:33;21.80;;;15.00;;
2564;SDS011;1292;48.020;7.822;2023-03-01T17:11:04;22.40;;;15.37;;
2564;SDS011;1292;48.020;7.822;2023-03-01T17:13:34;23.07;;;15.10;;
2564;SDS011;1292;48.020;7.822;2023-03-01T17:16:05;22.60;;;15.93;;
2564;SDS011;1292;48.020;7.822;2023-03-01T17:18:34;23.47;;;16.37;;
2564;SDS011;1292;48.020;7.822;2023-03-01T17:21:02;22.60;;;16.53;;
2564;SDS011;1292;48.020;7.822;2023-03-01T17:23:30;20.60;;;15.17;;
2564;SDS011;1292;48.020;7.822;2023-03-01T17:25:58;25.30;;;15.10;;
2564;SDS011;1292;48.020;7.822;2023-03-01T17:28:26;24.70;;;16.03;;
2564;SDS011;1292;48.020;7.822;2023-03-01T17:30:54;26.07;;;17.97;;
2564;SDS011;1292;48.020;7.822;2023-03-01T17:33:23;23.33;;;16.50;;
2564;SDS011;1292;48.020;7.822;2023-03-01T17:35:50;21.50;;;16.50;;
2564;SDS011;1292;48.020;7.822;2023-03-01T17:38:17;24.63;;;15.27;;
2564;SDS011;1292;48.020;7.822;2023-03-01T17:40:44;30.57;;;17.20;;
2564;SDS011;1292;48.020;7.822;2023-03-01T17:43:11;22.97;;;16.20;;
2564;SDS011;1292;48.020;7.822;2023-03-01T17:45:39;22.03;;;16.10;;
2564;SDS011;1292;48.020;7.822;2023-03-01T17:48:08;24.53;;;17.50;;
2564;SDS011;1292;48.020;7.822;2023-03-01T17:50:37;22.90;;;16.60;;
2564;SDS011;1292;48.020;7.822;2023-03-01T17:53:05;23.57;;;16.67;;
2564;SDS011;1292;48.020;7.822;2023-03-01T17:55:34;21.87;;;14.73;;
2564;SDS011;1292;48.020;7.822;2023-03-01T17:58:01;29.60;;;18.30;;
2564;SDS011;1292;48.020;7.822;2023-03-01T18:00:28;22.53;;;16.80;;
2564;SDS011;1292;48.020;7.822;2023-03-01T18:02:55;25.10;;;17.90;;
2564;SDS011;1292;48.020;7.822;2023-03-01T18:05:22;24.23;;;17.40;;
2564;SDS011;1292;48.020;7.822;2023-03-01T18:07:50;27.83;;;16.83;;
2564;SDS011;1292;48.020;7.822;2023-03-01T18:10:17;25.43;;;18.07;;
2564;SDS011;1292;48.020;7.822;2023-03-01T18:12:44;24.03;;;17.47;;
2564;SDS011;1292;48.020;7.822;2023-03-01T18:15:11;23.10;;;15.97;;
2564;SDS011;1292;48.020;7.822;2023-03-01T18:17:38;25.60;;;17.33;;
2564;SDS011;1292;48.020;7.822;2023-03-01T18:20:05;23.20;;;15.70;;
2564;SDS011;1292;48.020;7.822;2023-03-01T18:22:33;26.27;;;18.90;;
2564;SDS011;1292;48.020;7.822;2023-03-01T18:25:03;24.00;;;17.53;;
2564;SDS011;1292;48.020;7.822;2023-03-01T18:27:31;23.53;;;16.40;;
2564;SDS011;1292;48.020;7.822;2023-03-01T18:29:58;30.13;;;19.60;;
2564;SDS011;1292;48.020;7.822;2023-03-01T18:32:25;23.57;;;17.90;;
2564;SDS011;1292;48.020;7.822;2023-03-01T18:34:53;24.63;;;16.77;;
2564;SDS011;1292;48.020;7.822;2023-03-01T18:37:21;24.67;;;16.60;;
2564;SDS011;1292;48.020;7.822;2023-03-01T18:39:49;21.30;;;16.17;;
2564;SDS011;1292;48.020;7.822;2023-03-01T18:42:19;24.30;;;17.00;;
2564;SDS011;1292;48.020;7.822;2023-03-01T18:44:47;21.40;;;17.50;;
2564;SDS011;1292;48.020;7.822;2023-03-01T18:47:14;21.60;;;16.10;;
2564;SDS011;1292;48.020;7.822;2023-03-01T18:49:41;24.33;;;16.83;;
2564;SDS011;1292;48.020;7.822;2023-03-01T18:52:08;25.07;;;16.53;;
2564;SDS011;1292;48.020;7.822;2023-03-01T18:54:35;23.37;;;16.07;;
2564;SDS011;1292;48.020;7.822;2023-03-01T18:57:02;23.97;;;16.17;;
2564;SDS011;1292;48.020;7.822;2023-03-01T18:59:30;28.00;;;19.80;;
2564;SDS011;1292;48.020;7.822;2023-03-01T19:01:57;24.93;;;17.00;;
2564;SDS011;1292;48.020;7.822;2023-03-01T19:04:23;26.83;;;18.27;;
2564;SDS011;1292;48.020;7.822;2023-03-01T19:06:51;32.20;;;19.20;;
2564;SDS011;1292;48.020;7.822;2023-03-01T19:09:18;24.30;;;17.23;;
2564;SDS011;1292;48.020;7.822;2023-03-01T19:11:44;26.97;;;18.90;;
2564;SDS011;1292;48.020;7.822;2023-03-01T19:14:11;27.13;;;19.33;;
2564;SDS011;1292;48.020;7.822;2023-03-01T19:16:41;28.03;;;18.90;;
2564;SDS011;1292;48.020;7.822;2023-03-01T19:19:08;27.70;;;18.33;;
2564;SDS011;1292;48.020;7.822;2023-03-01T19:21:35;23.23;;;17.20;;
2564;SDS011;1292;48.020;7.822;2023-03-01T19:24:02;29.03;;;18.00;;
2564;SDS011;1292;48.020;7.822;2023-03-01T19:26:30;27.77;;;17.97;;
2564;SDS011;1292;48.020;7.822;2023-03-01T19:28:57;24.43;;;17.00;;
2564;SDS011;1292;48.020;7.822;2023-03-01T19:31:25;26.67;;;17.40;;
2564;SDS011;1292;48.020;7.822;2023-03-01T19:33:56;29.47;;;19.20;;
2564;SDS011;1292;48.020;7.822;2023-03-01T19:36:23;24.13;;;18.13;;
2564;SDS011;1292;48.020;7.822;2023-03-01T19:38:57;23.03;;;16.50;;
2564;SDS011;1292;48.020;7.822;2023-03-01T19:41:25;30.07;;;18.87;;
2564;SDS011;1292;48.020;7.822;2023-03-01T19:43:52;24.47;;;18.60;;
2564;SDS011;1292;48.020;7.822;2023-03-01T19:46:19;25.50;;;18.13;;
2564;SDS011;1292;48.020;7.822;2023-03-01T19:48:46;25.60;;;17.27;;
2564;SDS011;1292;48.020;7.822;2023-03-01T19:51:14;20.43;;;15.27;;
2564;SDS011;1292;48.020;7.822;2023-03-01T19:53:41;26.93;;;16.80;;
2564;SDS011;1292;48.020;7.822;2023-03-01T19:56:08;31.20;;;17.13;;
2564;SDS011;1292;48.020;7.822;2023-03-01T19:58:35;26.57;;;17.10;;
2564;SDS011;1292;48.020;7.822;2023-03-01T20:01:03;27.00;;;18.93;;
2564;SDS011;1292;48.020;7.822;2023-03-01T20:03:31;30.57;;;18.67;;
2564;SDS011;1292;48.020;7.822;2023-03-01T20:06:04;28.93;;;19.10;;
2564;SDS011;1292;48.020;7.822;2023-03-01T20:08:35;28.63;;;20.10;;
2564;SDS011;1292;48.020;7.822;2023-03-01T20:11:02;34.37;;;24.03;;
2564;SDS011;1292;48.020;7.822;2023-03-01T20:13:30;28.33;;;18.53;;
2564;SDS011;1292;48.020;7.822;2023-03-01T20:15:57;24.03;;;17.83;;
2564;SDS011;1292;48.020;7.822;2023-03-01T20:18:25;28.53;;;19.30;;
2564;SDS011;1292;48.020;7.822;2023-03-01T20:20:52;27.87;;;18.00;;
2564;SDS011;1292;48.020;7.822;2023-03-01T20:23:19;29.13;;;18.63;;
2564;SDS011;1292;48.020;7.822;2023-03-01T20:25:48;29.33;;;17.90;;
2564;SDS011;1292;48.020;7.822;2023-03-01T20:28:15;27.00;;;17.30;;
2564;SDS011;1292;48.020;7.822;2023-03-01T20:30:43;27.53;;;18.87;;
2564;SDS011;1292;48.020;7.822;2023-03-01T20:33:10;26.40;;;17.50;;
2564;SDS011;1292;48.020;7.822;2023-03-01T20:35:39;27.07;;;17.90;;
2564;SDS011;1292;48.020;7.822;2023-03-01T20:38:07;26.00;;;16.80;;
2564;SDS011;1292;48.020;7.822;2023-03-01T20:40:34;28.90;;;18.80;;
2564;SDS011;1292;48.020;7.822;2023-03-01T20:43:03;26.23;;;16.80;;
2564;SDS011;1292;48.020;7.822;2023-03-01T20:45:30;26.77;;;16.40;;
2564;SDS011;1292;48.020;7.822;2023-03-01T20:47:56;29.60;;;17.13;;
2564;SDS011;1292;48.020;7.822;2023-03-01T20:50:23;24.80;;;15.90;;
2564;SDS011;1292;48.020;7.822;2023-03-01T20:52:50;25.10;;;16.97;;
2564;SDS011;1292;48.020;7.822;2023-03-01T20:55:17;24.30;;;17.23;;
2564;SDS011;1292;48.020;7.822;2023-03-01T20:57:44;24.70;;;16.67;;
2564;SDS011;1292;48.020;7.822;2023-03-01T21:00:13;23.23;;;16.63;;
2564;SDS011;1292;48.020;7.822;2023-03-01T21:02:40;26.63;;;17.63;;
2564;SDS011;1292;48.020;7.822;2023-03-01T21:05:08;24.70;;;16.27;;
2564;SDS011;1292;48.020;7.822;2023-03-01T21:07:35;25.03;;;16.67;;
2564;SDS011;1292;48.020;7.822;2023-03-01T21:10:02;22.33;;;16.00;;
2564;SDS011;1292;48.020;7.822;2023-03-01T21:12:29;23.40;;;16.53;;
2564;SDS011;1292;48.020;7.822;2023-03-01T21:14:56;26.67;;;17.23;;
2564;SDS011;1292;48.020;7.822;2023-03-01T21:17:24;25.40;;;16.40;;
2564;SDS011;1292;48.020;7.822;2023-03-01T21:19:51;23.63;;;17.60;;
2564;SDS011;1292;48.020;7.822;2023-03-01T21:22:18;30.07;;;17.80;;
2564;SDS011;1292;48.020;7.822;2023-03-01T21:24:45;27.17;;;17.50;;
2564;SDS011;1292;48.020;7.822;2023-03-01T21:27:12;26.90;;;16.43;;
2564;SDS011;1292;48.020;7.822;2023-03-01T21:29:39;22.90;;;17.17;;
2564;SDS011;1292;48.020;7.822;2023-03-01T21:32:08;24.17;;;16.50;;
2564;SDS011;1292;48.020;7.822;2023-03-01T21:34:37;22.17;;;16.20;;
2564;SDS011;1292;48.020;7.822;2023-03-01T21:37:06;25.97;;;17.80;;
2564;SDS011;1292;48.020;7.822;2023-03-01T21:39:34;23.60;;;17.00;;
2564;SDS011;1292;48.020;7.822;2023-03-01T21:42:02;25.53;;;18.13;;
2564;SDS011;1292;48.020;7.822;2023-03-01T21:44:30;21.97;;;16.47;;
2564;SDS011;1292;48.020;7.822;2023-03-01T21:46:57;27.37;;;17.90;;
2564;SDS011;1292;48.020;7.822;2023-03-01T21:49:24;24.40;;;16.13;;
2564;SDS011;1292;48.020;7.822;2023-03-01T21:51:53;28.13;;;18.47;;
2564;SDS011;1292;48.020;7.822;2023-03-01T21:54:20;28.50;;;19.20;;
2564;SDS011;1292;48.020;7.822;2023-03-01T21:56:47;24.57;;;18.47;;
2564;SDS011;1292;48.020;7.822;2023-03-01T21:59:16;29.97;;;19.97;;
